createdAt,value
2022-08-22T00:02:33.434Z,101297.38
2022-08-22T00:07:17.852Z,101316.47
2022-08-22T00:11:35.297Z,101321.09
2022-08-22T00:16:08.917Z,101319.22
2022-08-22T00:20:28.284Z,101323.84
2022-08-22T00:25:24.523Z,101324.41
2022-08-22T00:29:43.453Z,101318.06
2022-08-22T00:34:15.912Z,101324.06
2022-08-22T00:38:35.854Z,101324.34
2022-08-22T00:43:10.058Z,101322.72
2022-08-22T00:47:49.393Z,101326.28
2022-08-22T00:52:22.397Z,101319.75
2022-08-22T00:56:55.178Z,101320.81
2022-08-22T01:01:11.750Z,101325.72
2022-08-22T01:05:40.282Z,101326.00
2022-08-22T01:09:54.759Z,101325.44
2022-08-22T01:14:15.711Z,101325.72
2022-08-22T01:19:01.104Z,101322.72
2022-08-22T01:23:47.183Z,101326.00
2022-08-22T01:28:27.342Z,101330.59
2022-08-22T01:33:12.975Z,101327.63
2022-08-22T01:37:52.508Z,101337.72
2022-08-22T01:42:41.932Z,101334.72
2022-08-22T01:47:06.925Z,101334.72
2022-08-22T01:51:32.522Z,101321.63
2022-08-22T01:56:12.954Z,101326.00
2022-08-22T02:00:35.399Z,101331.97
2022-08-22T02:05:06.233Z,101322.44
2022-08-22T02:09:38.691Z,101321.06
2022-08-22T02:13:56.986Z,101327.31
2022-08-22T02:18:12.314Z,101328.41
2022-08-22T02:23:08.731Z,101320.50
2022-08-22T02:27:43.970Z,101315.88
2022-08-22T02:32:02.516Z,101322.94
2022-08-22T02:36:33.990Z,101307.69
2022-08-22T02:41:14.392Z,101310.94
2022-08-22T02:45:46.217Z,101298.44
2022-08-22T02:50:15.750Z,101310.69
2022-08-22T02:54:41.882Z,101303.84
2022-08-22T02:59:00.059Z,101303.31
2022-08-22T03:03:20.912Z,101305.47
2022-08-22T03:07:50.993Z,101304.41
2022-08-22T03:12:20.148Z,101303.28
2022-08-22T03:16:54.979Z,101302.75
2022-08-22T03:21:19.050Z,101288.53
2022-08-22T03:25:30.546Z,101295.63
2022-08-22T03:29:49.975Z,101295.34
2022-08-22T03:34:27.061Z,101289.03
2022-08-22T03:38:48.834Z,101282.25
2022-08-22T03:43:22.142Z,101279.22
2022-08-22T03:47:34.153Z,101289.03
2022-08-22T03:52:04.403Z,101277.03
2022-08-22T03:56:21.984Z,101286.59
2022-08-22T04:01:07.947Z,101274.03
2022-08-22T04:05:55.824Z,101271.03
2022-08-22T04:10:42.438Z,101278.38
2022-08-22T04:15:15.825Z,101284.91
2022-08-22T04:19:42.622Z,101291.47
2022-08-22T04:24:14.370Z,101296.34
2022-08-22T04:28:35.152Z,101300.47
2022-08-22T04:33:08.614Z,101304.31
2022-08-22T04:37:43.708Z,101299.13
2022-08-22T04:42:29.153Z,101288.50
2022-08-22T04:47:29.936Z,101293.66
2022-08-22T04:51:57.360Z,101299.13
2022-08-22T04:56:30.147Z,101294.22
2022-08-22T05:01:08.673Z,101304.03
2022-08-22T05:05:37.819Z,101301.03
2022-08-22T05:09:56.462Z,101291.19
2022-08-22T05:14:17.869Z,101299.38
2022-08-22T05:18:35.402Z,101298.25
2022-08-22T05:22:52.957Z,101309.44
2022-08-22T05:27:13.559Z,101302.34
2022-08-22T05:31:30.243Z,101298.81
2022-08-22T05:35:58.259Z,101302.34
2022-08-22T05:40:19.689Z,101307.56
2022-08-22T05:44:34.325Z,101311.13
2022-08-22T05:48:57.354Z,101327.22
2022-08-22T05:53:15.103Z,101326.19
2022-08-22T05:57:30.655Z,101335.72
2022-08-22T06:02:06.038Z,101325.38
2022-08-22T06:06:19.825Z,101330.03
2022-08-22T06:10:39.834Z,101333.59
2022-08-22T06:15:12.156Z,101332.25
2022-08-22T06:19:24.446Z,101324.63
2022-08-22T06:23:48.168Z,101334.72
2022-08-22T06:28:06.442Z,101332.28
2022-08-22T06:32:44.554Z,101342.13
2022-08-22T06:37:03.602Z,101326.00
2022-08-22T06:41:15.336Z,101351.09
2022-08-22T06:45:32.780Z,101342.09
2022-08-22T06:49:45.882Z,101354.88
2022-08-22T06:54:03.578Z,101361.13
2022-08-22T06:58:19.694Z,101362.50
2022-08-22T07:02:38.653Z,101356.75
2022-08-22T07:06:51.464Z,101353.19
2022-08-22T07:11:32.596Z,101376.03
2022-08-22T07:15:53.632Z,101365.03
2022-08-22T07:20:25.523Z,101356.72
2022-08-22T07:24:44.580Z,101353.00
2022-08-22T07:29:02.037Z,101361.34
2022-08-22T07:33:41.224Z,101352.53
2022-08-22T07:38:17.776Z,101380.22
2022-08-22T07:42:56.927Z,101374.59
2022-08-22T07:47:18.048Z,101373.25
2022-08-22T07:51:46.775Z,101358.38
2022-08-22T07:56:01.079Z,101356.94
2022-08-22T08:00:16.937Z,101352.38
2022-08-22T08:04:36.868Z,101350.53
2022-08-22T08:08:52.350Z,101344.19
2022-08-22T08:13:10.766Z,101351.75
2022-08-22T08:17:31.397Z,101332.31
2022-08-22T08:21:50.936Z,101333.63
2022-08-22T08:26:10.082Z,101332.06
2022-08-22T08:30:40.328Z,101344.22
2022-08-22T08:34:52.471Z,101311.13
2022-08-22T08:39:14.095Z,101311.53
2022-08-22T08:43:40.623Z,101323.66
2022-08-22T08:47:58.197Z,101325.00
2022-08-22T08:52:31.918Z,101309.44
2022-08-22T08:57:12.943Z,101312.66
2022-08-22T09:01:54.340Z,101323.75
2022-08-22T09:06:24.900Z,101321.84
2022-08-22T09:11:10.166Z,101319.50
2022-08-22T09:16:11.146Z,101318.19
2022-08-22T09:21:11.315Z,101320.03
2022-08-22T09:25:56.272Z,101326.03
2022-08-22T09:30:13.245Z,101316.78
2022-08-22T09:34:34.713Z,101309.56
2022-08-22T09:38:56.672Z,101314.41
2022-08-22T09:43:21.243Z,101307.31
2022-08-22T09:47:59.003Z,101310.91
2022-08-22T09:52:46.981Z,101314.19
2022-08-22T09:57:04.152Z,101307.38
2022-08-22T10:02:06.149Z,101311.84
2022-08-22T10:06:37.096Z,101301.38
2022-08-22T10:10:57.903Z,101284.59
2022-08-22T10:15:20.867Z,101288.47
2022-08-22T10:19:47.055Z,101291.50
2022-08-22T10:24:25.726Z,101285.78
2022-08-22T10:29:06.787Z,101283.75
2022-08-22T10:33:32.397Z,101274.53
2022-08-22T10:37:53.661Z,101270.78
2022-08-22T10:42:27.876Z,101265.28
2022-08-22T10:46:54.951Z,101265.50
2022-08-22T10:51:15.102Z,101273.84
2022-08-22T10:55:28.683Z,101263.13
2022-08-22T10:59:58.904Z,101268.72
2022-08-22T11:04:47.611Z,101273.81
2022-08-22T11:09:14.561Z,101256.75
2022-08-22T11:13:45.418Z,101249.50
2022-08-22T11:18:00.367Z,101251.56
2022-08-22T11:22:25.483Z,101242.91
2022-08-22T11:26:47.478Z,101248.38
2022-08-22T11:31:10.592Z,101251.84
2022-08-22T11:35:30.161Z,101238.81
2022-08-22T11:40:04.482Z,101254.44
2022-08-22T11:44:27.560Z,101255.75
2022-08-22T11:49:04.573Z,101245.56
2022-08-22T11:54:07.565Z,101220.72
2022-08-22T11:58:48.443Z,101219.00
2022-08-22T12:03:26.683Z,101225.28
2022-08-22T12:07:49.046Z,101216.56
2022-08-22T12:12:37.198Z,101228.16
2022-08-22T12:17:55.765Z,101230.97
2022-08-22T12:22:34.580Z,101218.38
2022-08-22T12:27:28.678Z,101217.94
2022-08-22T12:31:56.166Z,101209.16
2022-08-22T12:36:18.718Z,101206.63
2022-08-22T12:40:36.447Z,101219.28
2022-08-22T12:45:25.863Z,101207.25
2022-08-22T12:50:13.138Z,101200.97
2022-08-22T12:54:56.704Z,101208.50
2022-08-22T12:59:24.120Z,101193.34
2022-08-22T13:03:43.617Z,101196.94
2022-08-22T13:08:04.133Z,101193.63
2022-08-22T13:12:23.362Z,101194.19
2022-08-22T13:16:49.107Z,101188.72
2022-08-22T13:21:09.476Z,101185.44
2022-08-22T13:25:27.135Z,101179.44
2022-08-22T13:29:47.227Z,101173.16
2022-08-22T13:34:03.803Z,101170.03
2022-08-22T13:38:28.085Z,101169.31
2022-08-22T13:42:48.026Z,101173.50
2022-08-22T13:47:14.377Z,101155.22
2022-08-22T13:51:40.136Z,101162.50
2022-08-22T13:56:01.126Z,101164.13
2022-08-22T14:00:22.398Z,101167.53
2022-08-22T14:04:43.879Z,101153.53
2022-08-22T14:09:02.491Z,101166.78
2022-08-22T14:13:49.479Z,101170.75
2022-08-22T14:18:15.419Z,101158.47
2022-08-22T14:22:34.914Z,101162.38
2022-08-22T14:26:58.372Z,101155.94
2022-08-22T14:31:13.855Z,101151.72
2022-08-22T14:35:37.991Z,101144.91
2022-08-22T14:40:10.599Z,101144.09
2022-08-22T14:44:30.973Z,101142.63
2022-08-22T14:49:11.193Z,101140.19
2022-08-22T14:53:33.625Z,101137.06
2022-08-22T14:57:56.571Z,101136.72
2022-08-22T15:02:26.557Z,101131.50
2022-08-22T15:06:47.697Z,101124.59
2022-08-22T15:11:14.070Z,101128.63
2022-08-22T15:15:54.417Z,101127.13
2022-08-22T15:20:28.524Z,101113.28
2022-08-22T15:24:49.437Z,101113.84
2022-08-22T15:29:22.240Z,101111.09
2022-08-22T15:33:43.226Z,101118.25
2022-08-22T15:37:59.424Z,101113.47
2022-08-22T15:42:26.067Z,101097.13
2022-08-22T15:46:44.589Z,101099.66
2022-08-22T15:51:10.411Z,101103.94
2022-08-22T15:55:26.678Z,101094.78
2022-08-22T15:59:54.459Z,101102.47
2022-08-22T16:04:12.680Z,101095.50
2022-08-22T16:08:48.259Z,101099.44
2022-08-22T16:13:27.281Z,101093.50
2022-08-22T16:17:43.849Z,101091.75
2022-08-22T16:21:55.375Z,101077.44
2022-08-22T16:26:08.956Z,101078.63
2022-08-22T16:30:32.726Z,101077.06
2022-08-22T16:34:45.837Z,101074.31
2022-08-22T16:38:57.625Z,101074.03
2022-08-22T16:43:18.174Z,101073.78
2022-08-22T16:47:32.720Z,101082.66
2022-08-22T16:52:24.679Z,101074.84
2022-08-22T16:56:56.393Z,101075.09
2022-08-22T17:01:53.095Z,101062.75
2022-08-22T17:06:37.067Z,101054.03
2022-08-22T17:11:15.424Z,101044.81
2022-08-22T17:15:45.409Z,101044.88
2022-08-22T17:20:13.664Z,101045.06
2022-08-22T17:24:35.150Z,101055.16
2022-08-22T17:29:05.081Z,101039.28
2022-08-22T17:33:40.536Z,101047.13
2022-08-22T17:38:25.526Z,101054.47
2022-08-22T17:42:49.449Z,101046.06
2022-08-22T17:47:09.855Z,101057.25
2022-08-22T17:51:28.589Z,101061.34
2022-08-22T17:56:06.957Z,101059.41
2022-08-22T18:00:39.284Z,101056.19
2022-08-22T18:05:07.670Z,101049.56
2022-08-22T18:09:38.390Z,101063.31
2022-08-22T18:14:28.246Z,101053.91
2022-08-22T18:19:04.630Z,101069.00
2022-08-22T18:23:35.398Z,101072.38
2022-08-22T18:27:59.225Z,101063.38
2022-08-22T18:32:19.582Z,101066.88
2022-08-22T18:36:45.201Z,101066.50
2022-08-22T18:41:09.041Z,101072.75
2022-08-22T18:45:45.587Z,101081.25
2022-08-22T18:49:57.918Z,101076.78
2022-08-22T18:54:11.077Z,101093.84
2022-08-22T18:58:41.321Z,101091.66
2022-08-22T19:03:20.903Z,101096.22
2022-08-22T19:07:59.972Z,101113.34
2022-08-22T19:12:23.700Z,101111.56
2022-08-22T19:16:50.274Z,101115.34
2022-08-22T19:21:53.100Z,101128.97
2022-08-22T19:26:24.910Z,101132.25
2022-08-22T19:30:41.559Z,101137.31
2022-08-22T19:35:18.150Z,101122.38
2022-08-22T19:39:41.988Z,101135.78
2022-08-22T19:43:54.162Z,101127.94
2022-08-22T19:48:13.724Z,101133.22
2022-08-22T19:52:47.453Z,101140.94
2022-08-22T19:57:15.709Z,101141.16
2022-08-22T20:01:36.491Z,101137.38
2022-08-22T20:06:43.071Z,101124.38
2022-08-22T20:11:37.659Z,101127.00
2022-08-22T20:16:16.319Z,101124.22
2022-08-22T20:20:36.028Z,101121.03
2022-08-22T20:24:56.087Z,101120.84
2022-08-22T20:29:08.136Z,101113.56
2022-08-22T20:33:28.384Z,101111.72
2022-08-22T20:38:05.848Z,101119.13
2022-08-22T20:42:17.335Z,101118.63
2022-08-22T20:46:53.490Z,101114.56
2022-08-22T20:51:08.858Z,101103.06
2022-08-22T20:55:27.289Z,101112.81
2022-08-22T20:59:52.775Z,101105.53
2022-08-22T21:04:04.941Z,101104.56
2022-08-22T21:08:26.464Z,101103.38
2022-08-22T21:12:38.190Z,101097.28
2022-08-22T21:16:50.445Z,101091.00
2022-08-22T21:21:17.458Z,101104.44
2022-08-22T21:25:30.159Z,101101.69
2022-08-22T21:29:46.423Z,101102.53
2022-08-22T21:33:59.794Z,101101.34
2022-08-22T21:38:17.154Z,101095.53
2022-08-22T21:42:40.648Z,101098.50
2022-08-22T21:46:53.144Z,101082.94
2022-08-22T21:51:21.718Z,101091.59
2022-08-22T21:55:43.049Z,101085.38
2022-08-22T21:59:58.902Z,101104.72
2022-08-22T22:04:11.529Z,101099.63
2022-08-22T22:08:23.445Z,101105.34
2022-08-22T22:12:43.066Z,101103.19
2022-08-22T22:16:54.707Z,101094.34
2022-08-22T22:21:06.710Z,101089.25
2022-08-22T22:25:40.346Z,101083.91
2022-08-22T22:29:51.814Z,101080.31
2022-08-22T22:34:03.422Z,101084.56
2022-08-22T22:38:16.354Z,101102.94
2022-08-22T22:42:30.050Z,101096.75
2022-08-22T22:46:41.955Z,101089.63
2022-08-22T22:50:54.121Z,101100.28
2022-08-22T22:55:07.599Z,101091.63
2022-08-22T22:59:19.206Z,101095.25
2022-08-22T23:03:36.459Z,101088.53
2022-08-22T23:07:48.157Z,101088.16
2022-08-22T23:12:28.345Z,101096.19
2022-08-22T23:16:40.623Z,101092.81
2022-08-22T23:20:52.287Z,101092.34
2022-08-22T23:25:05.009Z,101091.47
2022-08-22T23:29:16.742Z,101085.50
2022-08-22T23:33:28.377Z,101092.75
2022-08-22T23:37:40.042Z,101100.97
2022-08-22T23:41:51.945Z,101092.94
2022-08-22T23:46:03.750Z,101095.44
2022-08-22T23:50:15.410Z,101085.13
2022-08-22T23:54:27.303Z,101084.88
2022-08-22T23:58:38.984Z,101078.13
